createdAt,value
2023-04-25T00:02:37.975Z,10.80
2023-04-25T00:05:25.860Z,10.80
2023-04-25T00:08:13.641Z,10.70
2023-04-25T00:11:03.008Z,10.60
2023-04-25T00:13:51.753Z,10.60
2023-04-25T00:16:40.182Z,10.50
2023-04-25T00:19:29.463Z,10.50
2023-04-25T00:22:16.767Z,10.60
2023-04-25T00:25:04.523Z,10.70
2023-04-25T00:27:51.830Z,10.60
2023-04-25T00:30:38.965Z,10.70
2023-04-25T00:33:26.258Z,10.70
2023-04-25T00:36:13.322Z,10.70
2023-04-25T00:39:00.914Z,10.60
2023-04-25T00:41:48.579Z,10.60
2023-04-25T00:44:37.296Z,10.50
2023-04-25T00:47:25.509Z,10.50
2023-04-25T00:50:13.793Z,10.50
2023-04-25T00:53:01.187Z,10.60
2023-04-25T00:55:50.830Z,10.50
2023-04-25T00:58:39.130Z,10.50
2023-04-25T01:01:26.575Z,10.50
2023-04-25T01:04:15.770Z,10.60
2023-04-25T01:07:03.710Z,10.60
2023-04-25T01:09:52.531Z,10.60
2023-04-25T01:12:39.833Z,10.60
2023-04-25T01:15:26.906Z,10.60
2023-04-25T01:18:14.418Z,10.80
2023-04-25T01:21:12.294Z,10.90
2023-04-25T01:24:00.253Z,11.00
2023-04-25T01:26:49.850Z,11.00
2023-04-25T01:29:37.393Z,11.00
2023-04-25T01:32:25.514Z,11.00
2023-04-25T01:35:13.748Z,11.10
2023-04-25T01:38:01.668Z,11.00
2023-04-25T01:40:52.489Z,11.00
2023-04-25T01:43:39.680Z,10.90
2023-04-25T01:46:27.455Z,10.80
2023-04-25T01:49:14.726Z,10.70
2023-04-25T01:52:01.801Z,10.60
2023-04-25T01:54:49.396Z,10.40
2023-04-25T01:57:36.688Z,10.40
2023-04-25T02:00:24.560Z,10.30
2023-04-25T02:03:11.840Z,10.20
2023-04-25T02:05:59.007Z,10.20
2023-04-25T02:08:46.361Z,10.20
2023-04-25T02:11:33.853Z,10.20
2023-04-25T02:14:20.958Z,10.10
2023-04-25T02:17:08.441Z,10.10
2023-04-25T02:19:55.635Z,10.10
2023-04-25T02:22:43.418Z,10.10
2023-04-25T02:25:30.993Z,10.10
2023-04-25T02:28:18.146Z,10.00
2023-04-25T02:31:05.817Z,9.90
2023-04-25T02:33:53.347Z,9.90
2023-04-25T02:36:40.873Z,10.00
2023-04-25T02:39:28.221Z,9.90
2023-04-25T02:42:15.393Z,9.90
2023-04-25T02:45:03.436Z,9.90
2023-04-25T02:47:50.822Z,9.90
2023-04-25T02:50:38.124Z,9.90
2023-04-25T02:53:25.538Z,9.90
2023-04-25T02:56:13.175Z,9.90
2023-04-25T02:59:00.994Z,9.80
2023-04-25T03:01:48.193Z,9.80
2023-04-25T03:04:35.620Z,9.80
2023-04-25T03:07:22.760Z,9.70
2023-04-25T03:10:10.371Z,9.80
2023-04-25T03:12:57.730Z,10.00
2023-04-25T03:15:45.577Z,10.10
2023-04-25T03:18:32.596Z,10.10
2023-04-25T03:21:20.035Z,10.10
2023-04-25T03:24:07.714Z,10.10
2023-04-25T03:26:55.540Z,10.00
2023-04-25T03:29:44.510Z,10.00
2023-04-25T03:32:32.035Z,9.90
2023-04-25T03:35:19.656Z,9.90
2023-04-25T03:38:06.724Z,10.00
2023-04-25T03:40:54.189Z,9.90
2023-04-25T03:43:41.328Z,9.70
2023-04-25T03:46:28.885Z,9.60
2023-04-25T03:49:19.091Z,9.60
2023-04-25T03:52:05.437Z,9.60
2023-04-25T03:54:52.798Z,9.60
2023-04-25T03:57:40.138Z,9.60
2023-04-25T04:00:28.085Z,9.60
2023-04-25T04:03:15.896Z,9.70
2023-04-25T04:06:05.071Z,9.70
2023-04-25T04:08:52.569Z,9.80
2023-04-25T04:11:40.266Z,9.70
2023-04-25T04:14:27.883Z,9.70
2023-04-25T04:17:15.670Z,9.80
2023-04-25T04:20:04.504Z,9.70
2023-04-25T04:22:51.794Z,9.70
2023-04-25T04:25:40.622Z,9.60
2023-04-25T04:28:27.672Z,9.70
2023-04-25T04:31:16.509Z,9.80
2023-04-25T04:34:04.383Z,9.90
2023-04-25T04:36:51.393Z,9.90
2023-04-25T04:39:38.914Z,9.90
2023-04-25T04:42:26.268Z,9.90
2023-04-25T04:45:13.893Z,9.80
2023-04-25T04:48:01.245Z,9.80
2023-04-25T04:50:48.851Z,9.90
2023-04-25T04:53:36.095Z,10.00
2023-04-25T04:56:24.171Z,9.90
2023-04-25T04:59:11.309Z,9.80
2023-04-25T05:01:58.908Z,9.50
2023-04-25T05:04:46.678Z,9.60
2023-04-25T05:07:34.144Z,9.70
2023-04-25T05:10:21.711Z,9.90
2023-04-25T05:13:09.035Z,10.00
2023-04-25T05:15:56.447Z,10.20
2023-04-25T05:18:44.117Z,10.30
2023-04-25T05:21:32.256Z,10.40
2023-04-25T05:24:19.711Z,10.40
2023-04-25T05:27:07.247Z,10.50
2023-04-25T05:29:54.581Z,10.60
2023-04-25T05:32:42.464Z,10.60
2023-04-25T05:35:29.700Z,10.70
2023-04-25T05:38:16.823Z,10.80
2023-04-25T05:41:03.968Z,10.80
2023-04-25T05:43:51.978Z,10.80
2023-04-25T05:46:40.074Z,10.80
2023-04-25T05:49:27.630Z,10.90
2023-04-25T05:52:16.108Z,10.90
2023-04-25T05:55:03.554Z,10.90
2023-04-25T05:57:51.578Z,10.90
2023-04-25T06:00:39.222Z,10.90
2023-04-25T06:03:27.149Z,10.90
2023-04-25T06:06:17.305Z,10.90
2023-04-25T06:09:04.756Z,11.10
2023-04-25T06:11:51.840Z,11.20
2023-04-25T06:14:39.723Z,11.30
2023-04-25T06:17:27.001Z,11.30
2023-04-25T06:20:14.320Z,11.40
2023-04-25T06:23:01.502Z,11.30
2023-04-25T06:25:48.890Z,11.50
2023-04-25T06:28:36.229Z,11.40
2023-04-25T06:31:23.360Z,11.40
2023-04-25T06:34:11.164Z,11.50
2023-04-25T06:36:58.697Z,11.60
2023-04-25T06:39:45.983Z,11.80
2023-04-25T06:42:33.342Z,11.70
2023-04-25T06:45:20.613Z,11.60
2023-04-25T06:48:08.137Z,11.70
2023-04-25T06:50:55.574Z,11.60
2023-04-25T06:53:42.749Z,11.40
2023-04-25T06:56:31.858Z,11.30
2023-04-25T06:59:18.841Z,11.00
2023-04-25T07:02:06.959Z,10.90
2023-04-25T07:04:54.585Z,11.00
2023-04-25T07:07:42.542Z,10.90
2023-04-25T07:10:29.604Z,11.00
2023-04-25T07:13:17.170Z,10.90
2023-04-25T07:16:05.844Z,11.00
2023-04-25T07:18:56.455Z,11.00
2023-04-25T07:21:44.004Z,11.10
2023-04-25T07:24:31.133Z,11.20
2023-04-25T07:27:18.481Z,11.50
2023-04-25T07:30:06.213Z,11.80
2023-04-25T07:32:53.502Z,12.00
2023-04-25T07:35:40.752Z,12.10
2023-04-25T07:38:27.929Z,12.30
2023-04-25T07:41:15.220Z,12.50
2023-04-25T07:44:02.831Z,12.50
2023-04-25T07:46:50.012Z,12.60
2023-04-25T07:49:37.730Z,12.70
2023-04-25T07:52:24.999Z,12.90
2023-04-25T07:55:12.285Z,13.10
2023-04-25T07:57:59.348Z,13.10
2023-04-25T08:00:46.451Z,12.70
2023-04-25T08:03:35.475Z,12.60
2023-04-25T08:06:23.169Z,12.60
2023-04-25T08:09:10.585Z,12.50
2023-04-25T08:11:57.814Z,12.30
2023-04-25T08:14:45.193Z,12.10
2023-04-25T08:17:32.518Z,12.20
2023-04-25T08:20:20.205Z,12.30
2023-04-25T08:23:07.347Z,12.50
2023-04-25T08:25:55.109Z,12.50
2023-04-25T08:28:42.128Z,12.40
2023-04-25T08:31:29.218Z,12.40
2023-04-25T08:34:16.420Z,12.70
2023-04-25T08:37:05.277Z,12.80
2023-04-25T08:39:53.903Z,12.80
2023-04-25T08:42:46.024Z,12.90
2023-04-25T08:45:35.150Z,12.90
2023-04-25T08:57:52.173Z,13.20
2023-04-25T09:00:39.315Z,13.50
2023-04-25T09:03:26.618Z,13.80
2023-04-25T09:06:14.348Z,13.80
2023-04-25T09:09:09.083Z,14.00
2023-04-25T09:11:56.949Z,13.90
2023-04-25T09:14:44.792Z,13.50
2023-04-25T09:17:32.137Z,13.40
2023-04-25T09:20:19.369Z,13.80
2023-04-25T09:23:08.112Z,13.90
2023-04-25T09:25:55.921Z,13.50
2023-04-25T09:28:46.376Z,13.40
2023-04-25T09:31:35.739Z,13.70
2023-04-25T09:34:22.925Z,13.70
2023-04-25T09:37:11.928Z,13.90
2023-04-25T09:40:05.478Z,14.10
2023-04-25T09:42:52.784Z,14.30
2023-04-25T09:45:46.771Z,14.20
2023-04-25T09:48:34.184Z,14.20
2023-04-25T09:51:21.424Z,14.20
2023-04-25T09:54:08.858Z,14.30
2023-04-25T09:56:56.415Z,14.60
2023-04-25T09:59:48.866Z,14.30
2023-04-25T10:02:37.558Z,14.10
2023-04-25T10:05:26.106Z,14.10
2023-04-25T10:08:15.364Z,14.10
2023-04-25T10:11:03.990Z,14.10
2023-04-25T10:13:52.314Z,14.20
2023-04-25T10:16:42.199Z,14.00
2023-04-25T10:19:30.469Z,13.70
2023-04-25T10:22:20.949Z,13.60
2023-04-25T10:25:09.424Z,13.50
2023-04-25T10:27:56.469Z,13.50
2023-04-25T10:31:04.424Z,13.40
2023-04-25T10:33:51.814Z,13.30
2023-04-25T10:36:39.223Z,13.10
2023-04-25T10:39:29.114Z,13.20
2023-04-25T10:42:16.954Z,13.10
2023-04-25T10:45:08.841Z,13.10
2023-04-25T10:47:56.854Z,13.20
2023-04-25T10:50:44.335Z,13.20
2023-04-25T10:53:34.613Z,13.20
2023-04-25T10:56:22.773Z,13.00
2023-04-25T10:59:12.309Z,12.70
2023-04-25T11:01:59.704Z,12.50
2023-04-25T11:04:46.982Z,12.50
2023-04-25T11:10:45.921Z,12.60
2023-04-25T11:13:33.870Z,12.50
2023-04-25T11:16:27.300Z,12.60
2023-04-25T11:19:10.474Z,12.80
2023-04-25T11:21:58.685Z,12.90
2023-04-25T11:24:47.790Z,12.70
2023-04-25T11:27:35.818Z,13.00
2023-04-25T11:30:24.711Z,13.30
2023-04-25T11:33:12.012Z,13.70
2023-04-25T11:35:59.679Z,14.20
2023-04-25T11:38:46.712Z,14.40
2023-04-25T11:41:34.282Z,14.50
2023-04-25T11:44:22.634Z,14.90
2023-04-25T11:47:11.697Z,15.00
2023-04-25T11:50:00.919Z,14.60
2023-04-25T11:52:49.713Z,14.20
2023-04-25T11:55:37.341Z,14.30
2023-04-25T11:58:25.384Z,14.00
2023-04-25T12:01:12.865Z,13.70
2023-04-25T12:04:01.153Z,13.80
2023-04-25T12:06:49.922Z,13.90
2023-04-25T12:09:36.775Z,13.70
2023-04-25T12:12:25.380Z,13.50
2023-04-25T12:15:21.105Z,13.30
2023-04-25T12:18:08.933Z,12.80
2023-04-25T12:20:56.526Z,12.70
2023-04-25T12:23:43.822Z,12.60
2023-04-25T12:26:34.506Z,12.60
2023-04-25T12:29:29.436Z,12.70
2023-04-25T12:32:14.661Z,12.80
2023-04-25T12:35:02.089Z,13.00
2023-04-25T12:37:49.713Z,13.10
2023-04-25T12:40:37.135Z,13.70
2023-04-25T12:43:24.268Z,13.80
2023-04-25T12:46:11.517Z,13.90
2023-04-25T12:49:08.337Z,14.10
2023-04-25T12:51:47.730Z,14.20
2023-04-25T12:54:35.021Z,14.50
2023-04-25T12:57:22.137Z,14.60
2023-04-25T13:00:11.688Z,14.90
2023-04-25T13:02:59.171Z,15.00
2023-04-25T13:05:46.856Z,15.10
2023-04-25T13:08:33.997Z,14.90
2023-04-25T13:11:21.244Z,14.40
2023-04-25T13:14:08.770Z,14.70
2023-04-25T13:16:56.011Z,15.00
2023-04-25T13:19:43.482Z,14.90
2023-04-25T13:22:31.024Z,15.00
2023-04-25T13:25:18.302Z,14.80
2023-04-25T13:28:06.040Z,14.80
2023-04-25T13:30:53.341Z,14.90
2023-04-25T13:33:40.506Z,14.80
2023-04-25T13:36:28.706Z,14.50
2023-04-25T13:39:16.228Z,14.30
2023-04-25T13:42:04.084Z,14.30
2023-04-25T13:44:51.095Z,14.80
2023-04-25T13:47:38.497Z,14.80
2023-04-25T13:50:26.128Z,14.70
2023-04-25T13:53:13.962Z,14.90
2023-04-25T13:56:01.293Z,15.20
2023-04-25T13:58:48.720Z,15.10
2023-04-25T14:01:36.764Z,15.40
2023-04-25T14:04:24.176Z,16.00
2023-04-25T14:07:11.906Z,15.80
2023-04-25T14:09:59.436Z,15.30
2023-04-25T14:12:46.528Z,15.30
2023-04-25T14:15:36.442Z,15.30
2023-04-25T14:18:23.690Z,15.70
2023-04-25T14:21:11.698Z,15.70
2023-04-25T14:24:00.709Z,15.30
2023-04-25T14:26:47.970Z,15.30
2023-04-25T14:29:36.554Z,15.50
2023-04-25T14:32:23.854Z,15.00
2023-04-25T14:35:11.174Z,15.50
2023-04-25T14:37:58.829Z,15.60
2023-04-25T14:40:46.155Z,15.80
2023-04-25T14:43:33.205Z,16.00
2023-04-25T14:46:21.507Z,16.20
2023-04-25T14:49:09.207Z,15.70
2023-04-25T14:51:56.485Z,15.20
2023-04-25T14:54:43.868Z,14.80
2023-04-25T14:57:31.398Z,14.70
2023-04-25T15:00:20.425Z,14.90
2023-04-25T15:03:08.838Z,15.00
2023-04-25T15:05:57.418Z,14.90
2023-04-25T15:08:44.881Z,14.50
2023-04-25T15:11:31.957Z,14.20
2023-04-25T15:14:19.639Z,14.20
2023-04-25T15:17:07.417Z,14.20
2023-04-25T15:19:56.431Z,14.30
2023-04-25T15:22:47.299Z,14.50
2023-04-25T15:25:34.563Z,14.50
2023-04-25T15:28:22.169Z,14.60
2023-04-25T15:31:09.771Z,14.80
2023-04-25T15:33:57.232Z,15.00
2023-04-25T15:36:44.569Z,14.90
2023-04-25T15:39:32.514Z,14.70
2023-04-25T15:42:21.224Z,14.60
2023-04-25T15:45:09.760Z,14.50
2023-04-25T15:47:57.960Z,14.60
2023-04-25T15:50:45.015Z,14.40
2023-04-25T15:53:32.802Z,14.20
2023-04-25T15:56:20.115Z,14.10
2023-04-25T15:59:07.552Z,14.20
2023-04-25T16:01:54.893Z,14.30
2023-04-25T16:04:42.670Z,14.30
2023-04-25T16:07:30.180Z,14.50
2023-04-25T16:10:22.979Z,14.50
2023-04-25T16:13:10.597Z,15.00
2023-04-25T16:15:58.168Z,15.00
2023-04-25T16:18:45.509Z,15.10
2023-04-25T16:21:32.859Z,15.20
2023-04-25T16:24:20.459Z,15.30
2023-04-25T16:27:09.245Z,15.20
2023-04-25T16:29:56.576Z,15.00
2023-04-25T16:32:45.559Z,14.60
2023-04-25T16:35:33.421Z,14.10
2023-04-25T16:38:21.632Z,14.00
2023-04-25T16:41:09.028Z,14.30
2023-04-25T16:43:56.217Z,14.30
2023-04-25T16:46:43.679Z,14.10
2023-04-25T16:49:30.831Z,14.10
2023-04-25T16:52:18.071Z,13.90
2023-04-25T16:55:06.353Z,13.70
2023-04-25T16:57:54.034Z,13.70
2023-04-25T17:00:41.716Z,13.60
2023-04-25T17:03:28.936Z,13.60
2023-04-25T17:06:17.351Z,13.80
2023-04-25T17:09:05.985Z,13.90
2023-04-25T17:11:53.110Z,13.70
2023-04-25T17:14:40.515Z,13.50
2023-04-25T17:17:28.144Z,13.30
2023-04-25T17:20:15.305Z,13.20
2023-04-25T17:23:02.945Z,13.00
2023-04-25T17:25:50.110Z,13.00
2023-04-25T17:28:36.955Z,13.00
2023-04-25T17:31:24.294Z,12.90
2023-04-25T17:34:13.348Z,12.90
2023-04-25T17:37:00.628Z,12.90
2023-04-25T17:39:48.125Z,12.90
2023-04-25T17:42:36.462Z,12.70
2023-04-25T17:45:23.521Z,12.70
2023-04-25T17:48:11.012Z,12.60
2023-04-25T17:50:58.764Z,12.50
2023-04-25T17:53:46.119Z,12.50
2023-04-25T17:56:37.711Z,12.30
2023-04-25T17:59:24.870Z,12.30
2023-04-25T18:02:12.585Z,12.20
2023-04-25T18:04:59.679Z,12.20
2023-04-25T18:07:50.157Z,12.00
2023-04-25T18:10:38.831Z,12.00
2023-04-25T18:13:26.960Z,11.90
2023-04-25T18:16:15.844Z,11.80
2023-04-25T18:19:06.121Z,11.70
2023-04-25T18:21:58.458Z,11.70
2023-04-25T18:24:46.393Z,11.60
2023-04-25T18:27:33.346Z,11.60
2023-04-25T18:30:20.678Z,11.50
2023-04-25T18:33:07.809Z,11.50
2023-04-25T18:35:59.336Z,11.50
2023-04-25T18:38:44.138Z,11.50
2023-04-25T18:41:52.140Z,11.40
2023-04-25T18:44:20.493Z,11.30
2023-04-25T18:47:12.882Z,11.20
2023-04-25T18:50:00.204Z,11.10
2023-04-25T18:52:47.631Z,10.90
2023-04-25T18:55:35.394Z,10.90
2023-04-25T18:58:22.829Z,10.80
2023-04-25T19:01:10.525Z,10.70
2023-04-25T19:03:58.321Z,10.60
2023-04-25T19:06:46.391Z,10.50
2023-04-25T19:09:33.498Z,10.50
2023-04-25T19:12:21.753Z,10.30
2023-04-25T19:15:09.768Z,10.20
2023-04-25T19:17:57.483Z,10.10
2023-04-25T19:20:44.773Z,10.00
2023-04-25T19:23:32.315Z,9.90
2023-04-25T19:26:19.635Z,9.80
2023-04-25T19:29:15.134Z,9.60
2023-04-25T19:32:03.450Z,9.50
2023-04-25T19:34:50.736Z,9.40
2023-04-25T19:37:38.263Z,9.30
2023-04-25T19:40:26.162Z,9.20
2023-04-25T19:43:13.380Z,9.10
2023-04-25T19:46:01.260Z,9.00
2023-04-25T19:48:48.307Z,9.00
2023-04-25T19:51:36.602Z,8.90
2023-04-25T19:54:23.940Z,8.80
2023-04-25T19:57:11.172Z,8.70
2023-04-25T19:59:58.626Z,8.60
2023-04-25T20:02:46.764Z,8.50
2023-04-25T20:05:34.106Z,8.30
2023-04-25T20:08:21.881Z,8.30
2023-04-25T20:11:09.306Z,8.30
2023-04-25T20:13:58.370Z,8.20
2023-04-25T20:16:46.725Z,8.10
2023-04-25T20:19:33.914Z,8.10
2023-04-25T20:22:21.095Z,8.10
2023-04-25T20:25:09.829Z,8.00
2023-04-25T20:27:57.262Z,8.00
2023-04-25T20:30:45.250Z,7.90
2023-04-25T20:33:32.807Z,7.80
2023-04-25T20:36:20.234Z,7.80
2023-04-25T20:39:07.854Z,7.80
2023-04-25T20:41:56.966Z,7.70
2023-04-25T20:44:44.176Z,7.60
2023-04-25T20:47:31.382Z,7.50
2023-04-25T20:50:18.414Z,7.50
2023-04-25T20:53:06.668Z,7.50
2023-04-25T20:55:53.986Z,7.40
2023-04-25T20:58:41.313Z,7.30
2023-04-25T21:01:29.003Z,7.30
2023-04-25T21:04:18.051Z,7.30
2023-04-25T21:07:05.096Z,7.30
2023-04-25T21:09:52.449Z,7.20
2023-04-25T21:12:40.752Z,7.30
2023-04-25T21:15:30.647Z,7.30
2023-04-25T21:18:18.040Z,7.20
2023-04-25T21:21:06.641Z,7.10
2023-04-25T21:23:53.776Z,7.10
2023-04-25T21:26:40.896Z,7.00
2023-04-25T21:29:28.675Z,7.00
2023-04-25T21:32:17.509Z,6.90
2023-04-25T21:35:05.255Z,6.90
2023-04-25T21:37:52.877Z,6.90
2023-04-25T21:40:41.739Z,6.90
2023-04-25T21:43:28.840Z,6.90
2023-04-25T21:46:23.525Z,6.90
2023-04-25T21:49:04.775Z,7.00
2023-04-25T21:51:53.249Z,7.10
2023-04-25T21:54:40.610Z,7.30
2023-04-25T21:57:27.840Z,7.40
2023-04-25T22:00:21.915Z,7.50
2023-04-25T22:03:08.989Z,7.60
2023-04-25T22:05:56.592Z,7.70
2023-04-25T22:08:43.840Z,7.70
2023-04-25T22:11:31.094Z,7.60
2023-04-25T22:14:18.138Z,7.60
2023-04-25T22:17:05.762Z,7.60
2023-04-25T22:19:53.007Z,7.50
2023-04-25T22:22:44.122Z,7.40
2023-04-25T22:25:31.793Z,7.40
2023-04-25T22:28:21.363Z,7.30
2023-04-25T22:31:08.571Z,7.20
2023-04-25T22:33:55.967Z,7.10
2023-04-25T22:36:43.748Z,7.10
2023-04-25T22:39:31.199Z,7.00
2023-04-25T22:42:18.333Z,7.00
2023-04-25T22:45:07.916Z,6.90
2023-04-25T22:47:55.188Z,6.90
2023-04-25T22:50:43.351Z,6.90
2023-04-25T22:53:32.019Z,6.90
2023-04-25T22:56:19.076Z,6.80
2023-04-25T22:59:06.457Z,6.80
2023-04-25T23:01:55.679Z,6.70
2023-04-25T23:04:42.894Z,6.70
2023-04-25T23:07:31.490Z,6.80
2023-04-25T23:10:19.254Z,6.80
2023-04-25T23:13:06.340Z,6.80
2023-04-25T23:15:53.392Z,6.80
2023-04-25T23:18:41.159Z,6.80
2023-04-25T23:21:28.661Z,6.80
2023-04-25T23:24:16.160Z,6.80
2023-04-25T23:27:03.630Z,6.70
2023-04-25T23:29:55.251Z,6.70
2023-04-25T23:32:42.890Z,6.70
2023-04-25T23:35:30.335Z,6.60
2023-04-25T23:38:17.975Z,6.70
2023-04-25T23:41:05.559Z,6.70
2023-04-25T23:43:52.910Z,6.70
2023-04-25T23:46:40.927Z,6.80
2023-04-25T23:49:28.137Z,6.80
2023-04-25T23:52:15.748Z,6.90
2023-04-25T23:55:05.057Z,6.80
2023-04-25T23:57:52.376Z,6.80
